Webcam Flughafen St.Gallen-Altenrhein

Live-Bilder und Zeitraffer LSZR / ACH.

 

Live aus Altenrhein
LIVE
LSZR 022320Z AUTO VRB02KT CAVOK 12/09 Q1012
Zeitraffer heute
2020-06-03 00:13:54
LSZR 022150Z AUTO VRB01KT CAVOK 16/09 Q1012